createdAt,value
2023-02-22T00:00:59.930Z,8.20
2023-02-22T00:03:32.544Z,6.20
2023-02-22T00:06:05.322Z,6.40
2023-02-22T00:08:35.773Z,7.70
2023-02-22T00:11:08.645Z,6.40
2023-02-22T00:13:37.667Z,5.80
2023-02-22T00:16:06.446Z,6.40
2023-02-22T00:18:34.425Z,6.70
2023-02-22T00:21:02.491Z,6.30
2023-02-22T00:23:31.941Z,7.30
2023-02-22T00:26:00.162Z,6.00
2023-02-22T00:28:31.115Z,6.80
2023-02-22T00:30:59.947Z,7.30
2023-02-22T00:33:28.204Z,6.70
2023-02-22T00:35:56.053Z,6.20
2023-02-22T00:38:25.837Z,5.70
2023-02-22T00:40:54.145Z,5.00
2023-02-22T00:43:25.093Z,6.60
2023-02-22T00:45:54.168Z,8.90
2023-02-22T00:48:26.025Z,6.10
2023-02-22T00:50:56.875Z,7.30
2023-02-22T00:53:25.547Z,6.60
2023-02-22T00:55:53.823Z,7.40
2023-02-22T00:58:22.239Z,6.80
2023-02-22T01:00:50.869Z,5.30
2023-02-22T01:03:19.756Z,5.80
2023-02-22T01:05:47.825Z,7.00
2023-02-22T01:08:17.943Z,6.40
2023-02-22T01:10:46.780Z,6.20
2023-02-22T01:13:15.562Z,6.70
2023-02-22T01:15:45.064Z,6.70
2023-02-22T01:18:13.188Z,7.00
2023-02-22T01:20:41.140Z,10.20
2023-02-22T01:23:10.651Z,7.60
2023-02-22T01:25:39.060Z,9.30
2023-02-22T01:28:07.844Z,7.80
2023-02-22T01:30:39.491Z,8.60
2023-02-22T01:33:08.023Z,7.20
2023-02-22T01:35:38.605Z,5.50
2023-02-22T01:38:08.553Z,4.40
2023-02-22T01:40:38.762Z,6.90
2023-02-22T01:43:21.005Z,7.00
2023-02-22T01:46:01.412Z,5.40
2023-02-22T01:48:31.160Z,6.10
2023-02-22T01:51:03.864Z,5.40
2023-02-22T01:53:35.392Z,5.70
2023-02-22T01:56:03.463Z,4.20
2023-02-22T01:58:33.765Z,5.90
2023-02-22T02:01:01.782Z,6.30
2023-02-22T02:03:33.178Z,5.00
2023-02-22T02:06:02.214Z,5.00
2023-02-22T02:08:51.669Z,5.50
2023-02-22T02:11:21.906Z,6.00
2023-02-22T02:13:55.280Z,5.70
2023-02-22T02:16:27.797Z,5.10
2023-02-22T02:18:55.707Z,4.20
2023-02-22T02:21:49.963Z,6.20
2023-02-22T02:24:24.011Z,5.90
2023-02-22T02:26:57.497Z,6.80
2023-02-22T02:29:34.697Z,5.70
2023-02-22T02:32:06.044Z,5.60
2023-02-22T02:35:11.512Z,8.10
2023-02-22T02:37:45.198Z,5.00
2023-02-22T02:40:45.153Z,4.80
2023-02-22T02:43:34.899Z,6.30
2023-02-22T02:46:11.695Z,5.10
2023-02-22T02:48:43.275Z,5.20
2023-02-22T02:51:11.480Z,5.60
2023-02-22T02:53:41.061Z,5.40
2023-02-22T02:56:08.986Z,4.30
2023-02-22T02:58:49.236Z,4.60
2023-02-22T03:01:36.661Z,4.60
2023-02-22T03:04:27.394Z,8.00
2023-02-22T03:07:03.386Z,6.50
2023-02-22T03:09:58.446Z,5.20
2023-02-22T03:12:33.111Z,5.60
2023-02-22T03:15:36.396Z,6.60
2023-02-22T03:18:08.912Z,6.90
2023-02-22T03:20:43.210Z,6.50
2023-02-22T03:23:35.514Z,6.10
2023-02-22T03:26:05.470Z,6.40
2023-02-22T03:28:33.953Z,7.30
2023-02-22T03:31:11.008Z,7.10
2023-02-22T03:33:42.635Z,7.60
2023-02-22T03:36:19.220Z,9.00
2023-02-22T03:38:47.320Z,5.90
2023-02-22T03:41:16.785Z,7.70
2023-02-22T03:43:49.142Z,8.30
2023-02-22T03:46:19.268Z,6.60
2023-02-22T03:49:00.061Z,8.00
2023-02-22T03:51:30.286Z,9.20
2023-02-22T03:54:00.519Z,5.80
2023-02-22T03:56:38.172Z,6.70
2023-02-22T03:59:07.747Z,6.50
2023-02-22T04:01:36.078Z,7.20
2023-02-22T04:04:04.098Z,12.80
2023-02-22T04:06:33.445Z,7.00
2023-02-22T04:09:08.722Z,5.90
2023-02-22T04:11:37.613Z,7.00
2023-02-22T04:14:05.943Z,6.30
2023-02-22T04:16:34.002Z,6.10
2023-02-22T04:19:02.004Z,6.50
2023-02-22T04:21:30.897Z,7.90
2023-02-22T04:23:59.964Z,6.30
2023-02-22T04:26:31.615Z,5.00
2023-02-22T04:29:01.940Z,6.50
2023-02-22T04:31:36.186Z,8.30
2023-02-22T04:34:06.218Z,8.10
2023-02-22T04:36:37.401Z,6.00
2023-02-22T04:39:05.533Z,6.90
2023-02-22T04:41:34.673Z,7.80
2023-02-22T04:44:03.348Z,7.50
2023-02-22T04:46:32.576Z,7.00
2023-02-22T04:49:00.579Z,6.20
2023-02-22T04:51:31.479Z,7.10
2023-02-22T04:54:22.314Z,6.10
2023-02-22T04:56:50.304Z,6.30
2023-02-22T04:59:23.280Z,7.00
2023-02-22T05:01:57.152Z,6.10
2023-02-22T05:04:27.528Z,9.20
2023-02-22T05:06:55.798Z,9.30
2023-02-22T05:09:23.648Z,9.10
2023-02-22T05:11:52.387Z,8.10
2023-02-22T05:14:20.385Z,7.50
2023-02-22T05:16:49.893Z,9.40
2023-02-22T05:19:17.860Z,10.00
2023-02-22T05:21:45.934Z,8.90
2023-02-22T05:24:14.376Z,9.20
2023-02-22T05:26:45.728Z,10.60
2023-02-22T05:29:14.556Z,11.60
2023-02-22T05:31:42.615Z,10.00
2023-02-22T05:34:11.390Z,10.40
2023-02-22T05:36:39.734Z,12.60
2023-02-22T05:39:07.718Z,11.30
2023-02-22T05:41:36.509Z,9.50
2023-02-22T05:44:04.780Z,9.50
2023-02-22T05:46:32.888Z,9.20
2023-02-22T05:49:01.114Z,11.10
2023-02-22T05:51:29.163Z,11.00
2023-02-22T05:53:57.284Z,10.80
2023-02-22T05:56:27.127Z,11.10
2023-02-22T05:58:55.288Z,10.80
2023-02-22T06:01:23.289Z,9.20
2023-02-22T06:03:51.892Z,11.50
2023-02-22T06:06:22.212Z,9.90
2023-02-22T06:08:50.647Z,9.60
2023-02-22T06:11:19.841Z,14.20
2023-02-22T06:13:51.605Z,11.20
2023-02-22T06:16:23.902Z,13.20
2023-02-22T06:18:52.028Z,9.20
2023-02-22T06:21:20.111Z,8.90
2023-02-22T06:23:48.583Z,11.70
2023-02-22T06:26:17.698Z,11.10
2023-02-22T06:28:46.601Z,14.10
2023-02-22T06:31:15.212Z,11.80
2023-02-22T06:33:43.449Z,14.30
2023-02-22T06:36:12.004Z,11.10
2023-02-22T06:38:40.511Z,13.40
2023-02-22T06:41:09.058Z,16.80
2023-02-22T06:43:37.327Z,13.00
2023-02-22T06:46:05.677Z,16.70
2023-02-22T06:48:34.194Z,16.30
2023-02-22T06:51:02.192Z,17.30
2023-02-22T06:53:30.145Z,17.80
2023-02-22T06:55:58.224Z,18.80
2023-02-22T06:58:29.149Z,16.80
2023-02-22T07:00:57.181Z,17.20
2023-02-22T07:03:25.311Z,18.30
2023-02-22T07:05:53.336Z,17.20
2023-02-22T07:08:35.770Z,16.50
2023-02-22T07:11:05.999Z,17.10
2023-02-22T07:13:34.205Z,14.10
2023-02-22T07:16:03.344Z,17.60
2023-02-22T07:18:31.648Z,14.10
2023-02-22T07:21:05.012Z,20.10
2023-02-22T07:23:33.631Z,16.40
2023-02-22T07:26:02.002Z,12.70
2023-02-22T07:28:30.540Z,16.40
2023-02-22T07:30:59.031Z,17.00
2023-02-22T07:33:26.932Z,14.80
2023-02-22T07:35:55.009Z,14.70
2023-02-22T07:38:23.215Z,13.30
2023-02-22T07:40:51.382Z,14.60
2023-02-22T07:43:21.454Z,15.70
2023-02-22T07:45:50.336Z,13.20
2023-02-22T07:48:18.903Z,13.10
2023-02-22T07:50:47.268Z,12.50
2023-02-22T07:53:18.172Z,13.60
2023-02-22T07:55:46.371Z,12.40
2023-02-22T07:58:15.642Z,14.20
2023-02-22T08:00:49.897Z,13.80
2023-02-22T08:03:19.246Z,14.90
2023-02-22T08:05:48.852Z,13.40
2023-02-22T08:08:19.712Z,15.20
2023-02-22T08:10:48.959Z,14.10
2023-02-22T08:13:18.169Z,13.10
2023-02-22T08:15:47.224Z,14.80
2023-02-22T08:18:18.463Z,13.30
2023-02-22T08:20:48.226Z,14.20
2023-02-22T08:23:16.978Z,13.10
2023-02-22T08:25:45.165Z,13.70
2023-02-22T08:28:16.030Z,14.00
2023-02-22T08:30:44.196Z,16.70
2023-02-22T08:33:14.647Z,15.80
2023-02-22T08:35:42.727Z,11.70
2023-02-22T08:38:18.277Z,15.00
2023-02-22T08:40:48.233Z,15.00
2023-02-22T08:43:16.936Z,20.20
2023-02-22T08:45:45.463Z,19.70
2023-02-22T08:48:14.519Z,22.60
2023-02-22T08:50:42.452Z,18.20
2023-02-22T08:53:11.013Z,15.10
2023-02-22T08:55:42.856Z,15.90
2023-02-22T08:58:12.334Z,15.40
2023-02-22T09:00:41.183Z,15.90
2023-02-22T09:03:10.929Z,15.40
2023-02-22T09:05:39.083Z,15.40
2023-02-22T09:08:07.460Z,15.30
2023-02-22T09:10:35.843Z,17.70
2023-02-22T09:13:06.799Z,15.80
2023-02-22T09:15:36.347Z,21.30
2023-02-22T09:18:05.054Z,18.30
2023-02-22T09:20:35.968Z,17.80
2023-02-22T09:23:05.266Z,14.20
2023-02-22T09:25:34.279Z,15.10
2023-02-22T09:28:02.495Z,12.80
2023-02-22T09:30:35.052Z,10.90
2023-02-22T09:33:06.129Z,12.40
2023-02-22T09:35:36.352Z,14.40
2023-02-22T09:38:06.417Z,12.30
2023-02-22T09:40:41.055Z,12.90
2023-02-22T09:43:35.885Z,16.30
2023-02-22T09:46:13.822Z,16.60
2023-02-22T09:48:57.866Z,16.40
2023-02-22T09:51:38.163Z,13.80
2023-02-22T09:54:10.830Z,12.70
2023-02-22T09:56:39.538Z,13.90
2023-02-22T09:59:07.536Z,14.60
2023-02-22T10:01:46.511Z,13.40
2023-02-22T10:04:26.581Z,13.10
2023-02-22T10:07:13.192Z,12.30
2023-02-22T10:09:44.884Z,12.70
2023-02-22T10:12:28.527Z,12.80
2023-02-22T10:15:05.436Z,11.70
2023-02-22T10:17:50.459Z,14.80
2023-02-22T10:20:54.611Z,11.20
2023-02-22T10:23:44.560Z,11.10
2023-02-22T10:26:19.002Z,12.70
2023-02-22T10:29:01.464Z,10.40
2023-02-22T10:31:34.380Z,10.30
2023-02-22T10:34:05.766Z,11.10
2023-02-22T10:36:39.065Z,12.70
2023-02-22T10:39:27.401Z,12.40
2023-02-22T10:41:57.323Z,9.50
2023-02-22T10:44:25.516Z,12.10
2023-02-22T10:46:53.869Z,11.90
2023-02-22T10:49:23.080Z,12.60
2023-02-22T10:52:01.457Z,10.80
2023-02-22T10:54:34.926Z,9.80
2023-02-22T10:57:04.066Z,9.90
2023-02-22T10:59:34.388Z,9.50
2023-02-22T11:02:29.586Z,11.50
2023-02-22T11:04:59.947Z,10.40
2023-02-22T11:07:30.688Z,9.40
2023-02-22T11:10:00.839Z,10.80
2023-02-22T11:12:34.021Z,9.70
2023-02-22T11:15:17.227Z,10.60
2023-02-22T11:17:47.087Z,10.10
2023-02-22T11:20:25.706Z,10.30
2023-02-22T11:22:55.811Z,11.90
2023-02-22T11:25:29.574Z,9.40
2023-02-22T11:28:10.156Z,10.70
2023-02-22T11:30:38.460Z,10.20
2023-02-22T11:33:23.625Z,8.40
2023-02-22T11:35:54.635Z,7.40
2023-02-22T11:38:23.661Z,9.50
2023-02-22T11:41:17.796Z,8.50
2023-02-22T11:43:50.311Z,8.30
2023-02-22T11:46:28.140Z,8.80
2023-02-22T11:49:06.881Z,11.50
2023-02-22T11:52:07.983Z,9.20
2023-02-22T11:54:46.345Z,7.90
2023-02-22T11:57:30.050Z,8.90
2023-02-22T12:00:16.693Z,7.50
2023-02-22T12:02:57.710Z,8.70
2023-02-22T12:05:37.942Z,9.80
2023-02-22T12:08:28.319Z,7.60
2023-02-22T12:11:34.924Z,7.00
2023-02-22T12:14:24.571Z,9.00
2023-02-22T12:17:02.774Z,5.90
2023-02-22T12:19:32.221Z,6.80
2023-02-22T12:22:02.469Z,6.80
2023-02-22T12:24:34.725Z,7.70
2023-02-22T12:27:32.456Z,6.70
2023-02-22T12:30:04.683Z,8.40
2023-02-22T12:32:46.505Z,6.20
2023-02-22T12:35:27.404Z,6.60
2023-02-22T12:38:05.413Z,7.60
2023-02-22T12:40:38.009Z,7.70
2023-02-22T12:43:27.030Z,6.50
2023-02-22T12:48:46.672Z,7.50
2023-02-22T12:51:27.070Z,6.40
2023-02-22T12:54:01.463Z,7.50
2023-02-22T12:56:55.206Z,5.20
2023-02-22T12:59:41.134Z,7.20
2023-02-22T13:02:32.780Z,7.40
2023-02-22T13:05:01.712Z,8.10
2023-02-22T13:07:46.690Z,8.10
2023-02-22T13:10:42.668Z,6.80
2023-02-22T13:13:24.216Z,6.00
2023-02-22T13:16:34.623Z,8.60
2023-02-22T13:19:08.810Z,5.90
2023-02-22T13:22:04.886Z,6.80
2023-02-22T13:24:43.974Z,8.20
2023-02-22T13:27:28.092Z,8.70
2023-02-22T13:29:58.959Z,7.70
2023-02-22T13:32:47.023Z,9.40
2023-02-22T13:35:36.569Z,6.60
2023-02-22T13:38:16.675Z,8.50
2023-02-22T13:40:44.578Z,8.60
2023-02-22T13:43:31.076Z,7.90
2023-02-22T13:46:22.324Z,9.30
2023-02-22T13:48:51.159Z,8.30
2023-02-22T13:51:22.127Z,7.50
2023-02-22T13:53:55.884Z,8.10
2023-02-22T13:56:25.135Z,8.30
2023-02-22T13:58:55.119Z,8.70
2023-02-22T14:01:39.936Z,8.80
2023-02-22T14:04:23.701Z,9.30
2023-02-22T14:06:51.731Z,9.20
2023-02-22T14:09:48.396Z,7.50
2023-02-22T14:12:29.005Z,9.00
2023-02-22T14:15:28.036Z,10.30
2023-02-22T14:17:57.067Z,9.00
2023-02-22T14:20:43.229Z,10.30
2023-02-22T14:23:40.981Z,9.80
2023-02-22T14:26:27.505Z,8.80
2023-02-22T14:34:07.415Z,9.40
2023-02-22T14:36:56.362Z,10.10
2023-02-22T14:39:43.586Z,10.90
2023-02-22T14:42:17.980Z,10.90
2023-02-22T14:44:48.901Z,8.60
2023-02-22T14:47:28.284Z,9.40
2023-02-22T14:50:03.430Z,10.00
2023-02-22T14:52:32.927Z,9.90
2023-02-22T14:55:11.706Z,7.30
2023-02-22T14:57:46.778Z,11.60
2023-02-22T15:00:33.249Z,9.50
2023-02-22T15:03:01.310Z,9.20
2023-02-22T15:05:38.490Z,9.30
2023-02-22T15:10:43.939Z,9.40
2023-02-22T15:13:23.835Z,13.70
2023-02-22T15:16:02.126Z,10.30
2023-02-22T15:18:40.958Z,10.20
2023-02-22T15:21:25.433Z,10.20
2023-02-22T15:23:55.411Z,8.80
2023-02-22T15:26:31.503Z,13.80
2023-02-22T15:28:59.794Z,9.70
2023-02-22T15:31:36.010Z,13.20
2023-02-22T15:34:16.865Z,9.10
2023-02-22T15:36:46.413Z,10.70
2023-02-22T15:39:27.242Z,11.00
2023-02-22T15:42:06.248Z,12.10
2023-02-22T15:44:39.461Z,11.20
2023-02-22T15:47:15.903Z,10.70
2023-02-22T15:49:44.214Z,10.70
2023-02-22T15:52:22.566Z,10.60
2023-02-22T15:54:51.626Z,13.40
2023-02-22T15:57:21.647Z,8.90
2023-02-22T15:59:54.206Z,11.10
2023-02-22T16:02:38.853Z,10.20
2023-02-22T16:05:08.191Z,10.10
2023-02-22T16:07:40.998Z,12.60
2023-02-22T16:10:30.134Z,9.80
2023-02-22T16:13:05.382Z,11.70
2023-02-22T16:15:33.656Z,10.00
2023-02-22T16:18:24.583Z,12.00
2023-02-22T16:21:03.341Z,14.30
2023-02-22T16:23:33.591Z,11.70
2023-02-22T16:26:20.730Z,12.60
2023-02-22T16:28:53.476Z,13.40
2023-02-22T16:31:25.314Z,14.00
2023-02-22T16:33:54.197Z,17.10
2023-02-22T16:36:24.603Z,18.40
2023-02-22T16:38:53.747Z,18.90
2023-02-22T16:41:21.944Z,16.20
2023-02-22T16:43:51.410Z,16.40
2023-02-22T16:46:20.026Z,15.60
2023-02-22T16:48:48.450Z,17.50
2023-02-22T16:51:26.685Z,15.00
2023-02-22T16:53:55.972Z,15.30
2023-02-22T16:56:30.537Z,17.80
2023-02-22T16:59:02.884Z,18.50
2023-02-22T17:01:35.163Z,17.20
2023-02-22T17:04:06.252Z,17.50
2023-02-22T17:06:36.173Z,17.50
2023-02-22T17:09:04.036Z,20.10
2023-02-22T17:11:33.182Z,17.30
2023-02-22T17:14:01.284Z,18.10
2023-02-22T17:16:30.989Z,18.00
2023-02-22T17:19:00.179Z,17.70
2023-02-22T17:21:28.259Z,21.60
2023-02-22T17:23:56.200Z,20.60
2023-02-22T17:26:26.308Z,22.80
2023-02-22T17:28:54.391Z,19.10
2023-02-22T17:31:24.155Z,21.60
2023-02-22T17:33:52.136Z,20.50
2023-02-22T17:36:21.135Z,28.00
2023-02-22T17:38:50.063Z,22.50
2023-02-22T17:41:20.796Z,26.90
2023-02-22T17:43:49.163Z,24.60
2023-02-22T17:46:19.894Z,19.00
2023-02-22T17:48:48.371Z,21.10
2023-02-22T17:51:16.324Z,19.80
2023-02-22T17:53:44.177Z,22.50
2023-02-22T17:56:13.919Z,26.30
2023-02-22T17:58:42.117Z,23.00
2023-02-22T18:01:31.443Z,20.60
2023-02-22T18:04:01.168Z,20.10
2023-02-22T18:06:30.364Z,20.50
2023-02-22T18:08:59.104Z,21.60
2023-02-22T18:11:28.474Z,22.80
2023-02-22T18:13:57.070Z,18.80
2023-02-22T18:16:28.292Z,18.60
2023-02-22T18:18:56.783Z,17.10
2023-02-22T18:21:26.833Z,19.20
2023-02-22T18:23:55.355Z,21.50
2023-02-22T18:26:25.196Z,21.50
2023-02-22T18:28:54.469Z,18.80
2023-02-22T18:31:22.802Z,19.30
2023-02-22T18:33:51.389Z,20.60
2023-02-22T18:36:23.267Z,18.00
2023-02-22T18:38:54.208Z,18.20
2023-02-22T18:41:25.949Z,18.20
2023-02-22T18:43:55.464Z,19.70
2023-02-22T18:46:24.078Z,20.60
2023-02-22T18:48:53.880Z,20.60
2023-02-22T18:51:21.863Z,19.20
2023-02-22T18:54:00.174Z,19.30
2023-02-22T18:56:34.148Z,17.60
2023-02-22T18:59:03.424Z,16.70
2023-02-22T19:01:34.783Z,14.50
2023-02-22T19:04:03.098Z,17.70
2023-02-22T19:06:31.206Z,15.00
2023-02-22T19:09:01.393Z,16.10
2023-02-22T19:11:29.712Z,17.50
2023-02-22T19:13:58.685Z,16.00
2023-02-22T19:16:31.758Z,17.30
2023-02-22T19:19:00.137Z,15.10
2023-02-22T19:21:29.398Z,18.10
2023-02-22T19:24:06.857Z,18.20
2023-02-22T19:26:35.769Z,15.10
2023-02-22T19:29:09.671Z,18.00
2023-02-22T19:31:40.098Z,16.30
2023-02-22T19:34:10.319Z,15.80
2023-02-22T19:36:45.476Z,18.90
2023-02-22T19:39:14.847Z,21.50
2023-02-22T19:41:43.554Z,20.40
2023-02-22T19:44:12.408Z,20.70
2023-02-22T19:46:40.618Z,21.50
2023-02-22T19:49:08.741Z,19.00
2023-02-22T19:51:37.615Z,22.80
2023-02-22T19:54:06.944Z,20.00
2023-02-22T19:56:35.677Z,22.40
2023-02-22T19:59:23.704Z,21.10
2023-02-22T20:01:55.295Z,25.90
2023-02-22T20:04:30.463Z,24.40
2023-02-22T20:07:00.053Z,22.50
2023-02-22T20:09:37.410Z,19.80
2023-02-22T20:12:07.912Z,24.70
2023-02-22T20:14:36.082Z,21.90
2023-02-22T20:17:05.007Z,23.30
2023-02-22T20:19:37.137Z,19.10
2023-02-22T20:22:05.261Z,19.30
2023-02-22T20:24:33.222Z,14.20
2023-02-22T20:27:01.138Z,16.50
2023-02-22T20:29:31.586Z,16.50
2023-02-22T20:32:00.974Z,18.70
2023-02-22T20:34:33.383Z,23.50
2023-02-22T20:37:02.059Z,18.50
2023-02-22T20:39:30.363Z,21.30
2023-02-22T20:42:02.758Z,23.70
2023-02-22T20:44:30.862Z,23.00
2023-02-22T20:46:59.758Z,24.50
2023-02-22T20:49:28.068Z,26.80
2023-02-22T20:51:56.125Z,27.80
2023-02-22T20:54:24.371Z,23.60
2023-02-22T20:56:53.172Z,29.10
2023-02-22T20:59:22.012Z,28.30
2023-02-22T21:01:50.564Z,29.90
2023-02-22T21:04:18.747Z,24.40
2023-02-22T21:06:46.939Z,23.40
2023-02-22T21:09:17.758Z,25.10
2023-02-22T21:11:46.708Z,19.50
2023-02-22T21:14:18.600Z,18.60
2023-02-22T21:16:49.561Z,20.60
2023-02-22T21:19:27.323Z,20.50
2023-02-22T21:21:57.156Z,19.30
2023-02-22T21:24:26.173Z,23.60
2023-02-22T21:26:55.748Z,20.70
2023-02-22T21:29:23.916Z,23.80
2023-02-22T21:31:51.964Z,21.60
2023-02-22T21:34:21.092Z,18.20
2023-02-22T21:36:50.622Z,19.50
2023-02-22T21:39:19.151Z,18.70
2023-02-22T21:41:48.911Z,20.50
2023-02-22T21:44:17.942Z,17.00
2023-02-22T21:46:48.833Z,18.80
2023-02-22T21:49:17.308Z,14.90
2023-02-22T21:51:45.282Z,16.80
2023-02-22T21:54:13.688Z,21.40
2023-02-22T21:56:43.202Z,21.70
2023-02-22T21:59:16.618Z,26.50
2023-02-22T22:01:47.248Z,21.00
2023-02-22T22:04:19.455Z,20.30
2023-02-22T22:06:48.845Z,21.80
2023-02-22T22:09:19.934Z,17.70
2023-02-22T22:11:58.522Z,18.40
2023-02-22T22:14:27.312Z,20.00
2023-02-22T22:17:01.087Z,18.20
2023-02-22T22:19:31.119Z,19.40
2023-02-22T22:21:59.265Z,17.30
2023-02-22T22:24:29.536Z,20.20
2023-02-22T22:27:03.517Z,21.10
2023-02-22T22:29:35.282Z,18.60
2023-02-22T22:32:03.530Z,19.90
2023-02-22T22:34:34.477Z,22.30
2023-02-22T22:37:03.119Z,17.30
2023-02-22T22:39:31.641Z,19.10
2023-02-22T22:42:00.228Z,20.50
2023-02-22T22:44:32.892Z,14.40
2023-02-22T22:47:01.382Z,17.00
2023-02-22T22:49:31.488Z,16.30
2023-02-22T22:51:59.549Z,19.40
2023-02-22T22:54:27.493Z,20.50
2023-02-22T22:56:55.469Z,20.00
2023-02-22T22:59:23.875Z,14.20
2023-02-22T23:01:52.388Z,12.10
2023-02-22T23:04:24.223Z,15.40
2023-02-22T23:06:53.565Z,15.20
2023-02-22T23:09:26.374Z,16.30
2023-02-22T23:12:08.735Z,16.60
2023-02-22T23:14:38.911Z,19.30
2023-02-22T23:17:15.263Z,13.70
2023-02-22T23:19:46.981Z,14.90
2023-02-22T23:22:15.265Z,15.60
2023-02-22T23:24:45.520Z,17.80
2023-02-22T23:27:13.465Z,17.10
2023-02-22T23:29:42.300Z,15.10
2023-02-22T23:32:10.798Z,15.40
2023-02-22T23:34:41.676Z,14.40
2023-02-22T23:37:10.705Z,17.80
2023-02-22T23:39:39.260Z,16.20
2023-02-22T23:42:10.929Z,18.90
2023-02-22T23:44:40.597Z,16.60
2023-02-22T23:47:09.688Z,17.00
2023-02-22T23:49:38.493Z,16.50
2023-02-22T23:52:07.166Z,17.80
2023-02-22T23:54:40.326Z,13.70
2023-02-22T23:57:08.877Z,15.90
2023-02-22T23:59:40.666Z,16.60
